sensor_id;sensor_type;location;lat;lon;timestamp;P1;durP1;ratioP1;P2;durP2;ratioP2
19341;SDS011;9807;48.258;12.690;2023-05-23T00:00:20;10.13;;;9.13;;
19341;SDS011;9807;48.258;12.690;2023-05-23T00:02:46;9.80;;;8.77;;
19341;SDS011;9807;48.258;12.690;2023-05-23T00:05:12;11.07;;;9.17;;
19341;SDS011;9807;48.258;12.690;2023-05-23T00:07:39;15.20;;;11.90;;
19341;SDS011;9807;48.258;12.690;2023-05-23T00:10:05;14.80;;;12.50;;
19341;SDS011;9807;48.258;12.690;2023-05-23T00:12:31;20.70;;;14.77;;
19341;SDS011;9807;48.258;12.690;2023-05-23T00:15:01;16.03;;;12.40;;
19341;SDS011;9807;48.258;12.690;2023-05-23T00:17:27;14.00;;;12.47;;
19341;SDS011;9807;48.258;12.690;2023-05-23T00:19:53;12.57;;;9.97;;
19341;SDS011;9807;48.258;12.690;2023-05-23T00:22:20;16.87;;;12.57;;
19341;SDS011;9807;48.258;12.690;2023-05-23T00:24:46;15.37;;;13.47;;
19341;SDS011;9807;48.258;12.690;2023-05-23T00:27:11;19.63;;;14.60;;
19341;SDS011;9807;48.258;12.690;2023-05-23T00:29:37;14.23;;;12.50;;
19341;SDS011;9807;48.258;12.690;2023-05-23T00:32:03;15.83;;;12.50;;
19341;SDS011;9807;48.258;12.690;2023-05-23T00:34:29;17.87;;;13.30;;
19341;SDS011;9807;48.258;12.690;2023-05-23T00:36:54;17.13;;;14.50;;
19341;SDS011;9807;48.258;12.690;2023-05-23T00:39:20;18.30;;;14.33;;
19341;SDS011;9807;48.258;12.690;2023-05-23T00:41:46;16.90;;;14.37;;
19341;SDS011;9807;48.258;12.690;2023-05-23T00:44:13;13.90;;;11.23;;
19341;SDS011;9807;48.258;12.690;2023-05-23T00:46:39;11.33;;;9.67;;
19341;SDS011;9807;48.258;12.690;2023-05-23T00:49:07;14.67;;;10.67;;
19341;SDS011;9807;48.258;12.690;2023-05-23T00:51:33;9.77;;;8.77;;
19341;SDS011;9807;48.258;12.690;2023-05-23T00:54:00;9.90;;;8.90;;
19341;SDS011;9807;48.258;12.690;2023-05-23T00:56:28;13.00;;;11.33;;
19341;SDS011;9807;48.258;12.690;2023-05-23T00:58:54;13.97;;;11.53;;
19341;SDS011;9807;48.258;12.690;2023-05-23T01:01:20;12.03;;;10.33;;
19341;SDS011;9807;48.258;12.690;2023-05-23T01:03:46;12.70;;;9.50;;
19341;SDS011;9807;48.258;12.690;2023-05-23T01:06:12;11.23;;;9.40;;
19341;SDS011;9807;48.258;12.690;2023-05-23T01:08:38;11.13;;;8.60;;
19341;SDS011;9807;48.258;12.690;2023-05-23T01:11:31;10.40;;;9.03;;
19341;SDS011;9807;48.258;12.690;2023-05-23T01:14:23;11.43;;;9.47;;
19341;SDS011;9807;48.258;12.690;2023-05-23T01:17:00;9.77;;;8.77;;
19341;SDS011;9807;48.258;12.690;2023-05-23T01:19:48;13.70;;;12.20;;
19341;SDS011;9807;48.258;12.690;2023-05-23T01:25:01;13.00;;;9.93;;
19341;SDS011;9807;48.258;12.690;2023-05-23T01:27:57;12.17;;;10.37;;
19341;SDS011;9807;48.258;12.690;2023-05-23T01:30:26;19.87;;;15.93;;
19341;SDS011;9807;48.258;12.690;2023-05-23T01:32:55;22.97;;;14.90;;
19341;SDS011;9807;48.258;12.690;2023-05-23T01:35:23;24.57;;;16.30;;
19341;SDS011;9807;48.258;12.690;2023-05-23T01:37:53;22.33;;;16.77;;
19341;SDS011;9807;48.258;12.690;2023-05-23T01:40:20;20.90;;;14.60;;
19341;SDS011;9807;48.258;12.690;2023-05-23T01:42:48;15.73;;;12.53;;
19341;SDS011;9807;48.258;12.690;2023-05-23T01:45:15;11.57;;;10.20;;
19341;SDS011;9807;48.258;12.690;2023-05-23T01:47:44;17.87;;;14.63;;
19341;SDS011;9807;48.258;12.690;2023-05-23T01:50:12;11.73;;;10.53;;
19341;SDS011;9807;48.258;12.690;2023-05-23T01:52:39;10.43;;;8.80;;
19341;SDS011;9807;48.258;12.690;2023-05-23T01:55:05;10.57;;;9.33;;
19341;SDS011;9807;48.258;12.690;2023-05-23T01:57:34;10.27;;;9.17;;
19341;SDS011;9807;48.258;12.690;2023-05-23T02:00:01;15.50;;;10.27;;
19341;SDS011;9807;48.258;12.690;2023-05-23T02:02:27;15.23;;;11.87;;
19341;SDS011;9807;48.258;12.690;2023-05-23T02:04:53;12.13;;;10.67;;
19341;SDS011;9807;48.258;12.690;2023-05-23T02:07:21;11.70;;;8.63;;
19341;SDS011;9807;48.258;12.690;2023-05-23T02:09:47;20.37;;;14.20;;
19341;SDS011;9807;48.258;12.690;2023-05-23T02:12:13;21.47;;;15.27;;
19341;SDS011;9807;48.258;12.690;2023-05-23T02:14:39;11.83;;;9.87;;
19341;SDS011;9807;48.258;12.690;2023-05-23T02:17:06;11.37;;;10.03;;
19341;SDS011;9807;48.258;12.690;2023-05-23T02:19:36;11.00;;;9.67;;
19341;SDS011;9807;48.258;12.690;2023-05-23T02:22:02;10.80;;;9.37;;
19341;SDS011;9807;48.258;12.690;2023-05-23T02:24:28;11.10;;;9.83;;
19341;SDS011;9807;48.258;12.690;2023-05-23T02:26:53;11.03;;;9.30;;
19341;SDS011;9807;48.258;12.690;2023-05-23T02:29:19;9.97;;;8.70;;
19341;SDS011;9807;48.258;12.690;2023-05-23T02:31:45;10.87;;;9.77;;
19341;SDS011;9807;48.258;12.690;2023-05-23T02:34:11;12.43;;;9.10;;
19341;SDS011;9807;48.258;12.690;2023-05-23T02:36:37;12.90;;;11.13;;
19341;SDS011;9807;48.258;12.690;2023-05-23T02:39:03;12.70;;;10.67;;
19341;SDS011;9807;48.258;12.690;2023-05-23T02:41:29;11.47;;;10.23;;
19341;SDS011;9807;48.258;12.690;2023-05-23T02:43:56;10.80;;;9.37;;
19341;SDS011;9807;48.258;12.690;2023-05-23T02:46:22;10.53;;;9.20;;
19341;SDS011;9807;48.258;12.690;2023-05-23T02:48:48;9.83;;;8.67;;
19341;SDS011;9807;48.258;12.690;2023-05-23T02:51:14;10.93;;;9.80;;
19341;SDS011;9807;48.258;12.690;2023-05-23T02:53:40;10.43;;;8.80;;
19341;SDS011;9807;48.258;12.690;2023-05-23T02:56:06;10.70;;;8.93;;
19341;SDS011;9807;48.258;12.690;2023-05-23T02:58:32;9.73;;;8.57;;
19341;SDS011;9807;48.258;12.690;2023-05-23T03:01:00;11.70;;;9.50;;
19341;SDS011;9807;48.258;12.690;2023-05-23T03:03:27;11.30;;;10.10;;
19341;SDS011;9807;48.258;12.690;2023-05-23T03:05:53;15.37;;;11.60;;
19341;SDS011;9807;48.258;12.690;2023-05-23T03:08:18;20.20;;;16.10;;
19341;SDS011;9807;48.258;12.690;2023-05-23T03:10:44;21.57;;;14.47;;
19341;SDS011;9807;48.258;12.690;2023-05-23T03:13:10;22.07;;;14.07;;
19341;SDS011;9807;48.258;12.690;2023-05-23T03:15:35;15.23;;;10.63;;
19341;SDS011;9807;48.258;12.690;2023-05-23T03:18:01;14.90;;;12.33;;
19341;SDS011;9807;48.258;12.690;2023-05-23T03:20:27;10.00;;;9.00;;
19341;SDS011;9807;48.258;12.690;2023-05-23T03:22:52;13.50;;;10.20;;
19341;SDS011;9807;48.258;12.690;2023-05-23T03:25:18;9.73;;;8.73;;
19341;SDS011;9807;48.258;12.690;2023-05-23T03:27:44;11.20;;;9.93;;
19341;SDS011;9807;48.258;12.690;2023-05-23T03:30:10;10.47;;;9.40;;
19341;SDS011;9807;48.258;12.690;2023-05-23T03:32:36;11.27;;;8.87;;
19341;SDS011;9807;48.258;12.690;2023-05-23T03:35:01;10.17;;;8.80;;
19341;SDS011;9807;48.258;12.690;2023-05-23T03:37:27;10.30;;;9.20;;
19341;SDS011;9807;48.258;12.690;2023-05-23T03:39:53;13.13;;;10.37;;
19341;SDS011;9807;48.258;12.690;2023-05-23T03:42:18;17.70;;;13.97;;
19341;SDS011;9807;48.258;12.690;2023-05-23T03:44:44;22.17;;;14.93;;
19341;SDS011;9807;48.258;12.690;2023-05-23T03:47:10;21.23;;;15.47;;
19341;SDS011;9807;48.258;12.690;2023-05-23T03:49:35;20.83;;;16.07;;
19341;SDS011;9807;48.258;12.690;2023-05-23T03:52:01;23.93;;;15.93;;
19341;SDS011;9807;48.258;12.690;2023-05-23T03:54:27;16.03;;;13.53;;
19341;SDS011;9807;48.258;12.690;2023-05-23T03:56:52;18.97;;;15.47;;
19341;SDS011;9807;48.258;12.690;2023-05-23T03:59:18;24.77;;;16.07;;
19341;SDS011;9807;48.258;12.690;2023-05-23T04:01:44;24.57;;;16.30;;
19341;SDS011;9807;48.258;12.690;2023-05-23T04:04:10;25.10;;;18.43;;
19341;SDS011;9807;48.258;12.690;2023-05-23T04:06:35;24.77;;;19.03;;
19341;SDS011;9807;48.258;12.690;2023-05-23T04:09:02;29.20;;;18.60;;
19341;SDS011;9807;48.258;12.690;2023-05-23T04:11:29;32.10;;;18.90;;
19341;SDS011;9807;48.258;12.690;2023-05-23T04:13:55;36.40;;;19.80;;
19341;SDS011;9807;48.258;12.690;2023-05-23T04:16:21;34.73;;;19.13;;
19341;SDS011;9807;48.258;12.690;2023-05-23T04:18:48;28.43;;;18.67;;
19341;SDS011;9807;48.258;12.690;2023-05-23T04:21:14;31.10;;;19.40;;
19341;SDS011;9807;48.258;12.690;2023-05-23T04:23:39;31.43;;;19.30;;
19341;SDS011;9807;48.258;12.690;2023-05-23T04:26:05;30.77;;;19.33;;
19341;SDS011;9807;48.258;12.690;2023-05-23T04:28:31;35.23;;;19.93;;
19341;SDS011;9807;48.258;12.690;2023-05-23T04:30:58;38.03;;;21.80;;
19341;SDS011;9807;48.258;12.690;2023-05-23T04:33:26;31.43;;;19.77;;
19341;SDS011;9807;48.258;12.690;2023-05-23T04:35:54;32.87;;;20.97;;
19341;SDS011;9807;48.258;12.690;2023-05-23T04:38:20;34.13;;;21.37;;
19341;SDS011;9807;48.258;12.690;2023-05-23T04:40:46;37.07;;;22.60;;
19341;SDS011;9807;48.258;12.690;2023-05-23T04:43:13;42.87;;;23.90;;
19341;SDS011;9807;48.258;12.690;2023-05-23T04:45:40;37.93;;;24.73;;
19341;SDS011;9807;48.258;12.690;2023-05-23T04:48:06;37.37;;;24.53;;
19341;SDS011;9807;48.258;12.690;2023-05-23T04:50:32;33.27;;;23.27;;
19341;SDS011;9807;48.258;12.690;2023-05-23T04:52:59;36.87;;;22.10;;
19341;SDS011;9807;48.258;12.690;2023-05-23T04:55:25;30.97;;;22.37;;
19341;SDS011;9807;48.258;12.690;2023-05-23T04:57:51;31.27;;;19.77;;
19341;SDS011;9807;48.258;12.690;2023-05-23T05:00:16;27.13;;;18.77;;
19341;SDS011;9807;48.258;12.690;2023-05-23T05:02:42;23.57;;;18.07;;
19341;SDS011;9807;48.258;12.690;2023-05-23T05:05:08;28.27;;;18.13;;
19341;SDS011;9807;48.258;12.690;2023-05-23T05:07:34;22.77;;;17.43;;
19341;SDS011;9807;48.258;12.690;2023-05-23T05:10:01;28.40;;;16.67;;
19341;SDS011;9807;48.258;12.690;2023-05-23T05:12:27;25.23;;;17.23;;
19341;SDS011;9807;48.258;12.690;2023-05-23T05:14:52;28.93;;;17.40;;
19341;SDS011;9807;48.258;12.690;2023-05-23T05:17:18;23.07;;;16.60;;
19341;SDS011;9807;48.258;12.690;2023-05-23T05:19:46;26.70;;;17.33;;
19341;SDS011;9807;48.258;12.690;2023-05-23T05:22:12;30.57;;;18.70;;
19341;SDS011;9807;48.258;12.690;2023-05-23T05:24:39;25.63;;;16.13;;
19341;SDS011;9807;48.258;12.690;2023-05-23T05:27:04;22.67;;;16.23;;
19341;SDS011;9807;48.258;12.690;2023-05-23T05:29:31;22.03;;;15.53;;
19341;SDS011;9807;48.258;12.690;2023-05-23T05:31:57;24.80;;;15.63;;
19341;SDS011;9807;48.258;12.690;2023-05-23T05:34:25;20.57;;;15.33;;
19341;SDS011;9807;48.258;12.690;2023-05-23T05:36:52;22.43;;;14.93;;
19341;SDS011;9807;48.258;12.690;2023-05-23T05:39:21;20.13;;;15.07;;
19341;SDS011;9807;48.258;12.690;2023-05-23T05:41:48;20.97;;;15.50;;
19341;SDS011;9807;48.258;12.690;2023-05-23T05:44:14;22.63;;;15.03;;
19341;SDS011;9807;48.258;12.690;2023-05-23T05:46:39;21.23;;;14.83;;
19341;SDS011;9807;48.258;12.690;2023-05-23T05:49:05;21.17;;;15.97;;
19341;SDS011;9807;48.258;12.690;2023-05-23T05:51:31;23.30;;;15.77;;
19341;SDS011;9807;48.258;12.690;2023-05-23T05:53:56;22.10;;;15.50;;
19341;SDS011;9807;48.258;12.690;2023-05-23T05:56:22;20.10;;;15.47;;
19341;SDS011;9807;48.258;12.690;2023-05-23T05:58:48;20.10;;;15.03;;
19341;SDS011;9807;48.258;12.690;2023-05-23T06:01:14;22.83;;;15.73;;
19341;SDS011;9807;48.258;12.690;2023-05-23T06:03:39;21.03;;;15.50;;
19341;SDS011;9807;48.258;12.690;2023-05-23T06:06:05;24.50;;;15.80;;
19341;SDS011;9807;48.258;12.690;2023-05-23T06:08:32;21.07;;;15.70;;
19341;SDS011;9807;48.258;12.690;2023-05-23T06:10:58;20.90;;;15.57;;
19341;SDS011;9807;48.258;12.690;2023-05-23T06:13:24;22.90;;;15.47;;
19341;SDS011;9807;48.258;12.690;2023-05-23T06:15:49;20.50;;;15.37;;
19341;SDS011;9807;48.258;12.690;2023-05-23T06:18:15;20.43;;;16.73;;
19341;SDS011;9807;48.258;12.690;2023-05-23T06:20:42;24.53;;;15.90;;
19341;SDS011;9807;48.258;12.690;2023-05-23T06:23:08;20.77;;;15.03;;
19341;SDS011;9807;48.258;12.690;2023-05-23T06:25:34;22.73;;;15.57;;
19341;SDS011;9807;48.258;12.690;2023-05-23T06:28:00;22.70;;;16.47;;
19341;SDS011;9807;48.258;12.690;2023-05-23T06:30:25;21.97;;;15.80;;
19341;SDS011;9807;48.258;12.690;2023-05-23T06:32:53;20.50;;;16.63;;
19341;SDS011;9807;48.258;12.690;2023-05-23T06:35:19;22.80;;;16.37;;
19341;SDS011;9807;48.258;12.690;2023-05-23T06:37:44;21.63;;;16.80;;
19341;SDS011;9807;48.258;12.690;2023-05-23T06:40:11;23.97;;;17.10;;
19341;SDS011;9807;48.258;12.690;2023-05-23T06:42:38;24.77;;;16.73;;
19341;SDS011;9807;48.258;12.690;2023-05-23T06:45:04;24.00;;;16.63;;
19341;SDS011;9807;48.258;12.690;2023-05-23T06:47:30;26.20;;;16.50;;
19341;SDS011;9807;48.258;12.690;2023-05-23T06:49:56;20.33;;;15.67;;
19341;SDS011;9807;48.258;12.690;2023-05-23T06:52:21;21.63;;;16.80;;
19341;SDS011;9807;48.258;12.690;2023-05-23T06:54:47;19.40;;;15.77;;
19341;SDS011;9807;48.258;12.690;2023-05-23T06:57:12;20.83;;;14.87;;
19341;SDS011;9807;48.258;12.690;2023-05-23T06:59:38;27.13;;;17.40;;
19341;SDS011;9807;48.258;12.690;2023-05-23T07:02:04;22.97;;;17.03;;
19341;SDS011;9807;48.258;12.690;2023-05-23T07:04:30;23.60;;;16.60;;
19341;SDS011;9807;48.258;12.690;2023-05-23T07:06:56;25.47;;;17.43;;
19341;SDS011;9807;48.258;12.690;2023-05-23T07:09:21;22.63;;;18.00;;
19341;SDS011;9807;48.258;12.690;2023-05-23T07:11:47;24.40;;;18.20;;
19341;SDS011;9807;48.258;12.690;2023-05-23T07:14:13;25.77;;;19.50;;
19341;SDS011;9807;48.258;12.690;2023-05-23T07:16:39;24.83;;;18.90;;
19341;SDS011;9807;48.258;12.690;2023-05-23T07:19:05;25.27;;;19.13;;
19341;SDS011;9807;48.258;12.690;2023-05-23T07:21:31;26.00;;;18.13;;
19341;SDS011;9807;48.258;12.690;2023-05-23T07:23:56;24.67;;;18.13;;
19341;SDS011;9807;48.258;12.690;2023-05-23T07:26:22;26.70;;;19.13;;
19341;SDS011;9807;48.258;12.690;2023-05-23T07:28:51;26.50;;;18.97;;
19341;SDS011;9807;48.258;12.690;2023-05-23T07:31:17;24.07;;;18.57;;
19341;SDS011;9807;48.258;12.690;2023-05-23T07:33:43;30.37;;;20.20;;
19341;SDS011;9807;48.258;12.690;2023-05-23T07:36:09;33.47;;;20.30;;
19341;SDS011;9807;48.258;12.690;2023-05-23T07:38:35;27.27;;;20.50;;
19341;SDS011;9807;48.258;12.690;2023-05-23T07:41:01;31.80;;;20.80;;
19341;SDS011;9807;48.258;12.690;2023-05-23T07:43:26;32.77;;;20.83;;
19341;SDS011;9807;48.258;12.690;2023-05-23T07:45:52;27.93;;;20.50;;
19341;SDS011;9807;48.258;12.690;2023-05-23T07:48:17;29.17;;;20.93;;
19341;SDS011;9807;48.258;12.690;2023-05-23T07:50:43;26.57;;;19.33;;
19341;SDS011;9807;48.258;12.690;2023-05-23T07:53:09;26.83;;;19.57;;
19341;SDS011;9807;48.258;12.690;2023-05-23T07:55:35;27.87;;;19.87;;
19341;SDS011;9807;48.258;12.690;2023-05-23T07:58:00;24.83;;;18.60;;
19341;SDS011;9807;48.258;12.690;2023-05-23T08:00:27;28.33;;;20.37;;
19341;SDS011;9807;48.258;12.690;2023-05-23T08:02:52;26.57;;;18.17;;
19341;SDS011;9807;48.258;12.690;2023-05-23T08:05:18;25.43;;;18.50;;
19341;SDS011;9807;48.258;12.690;2023-05-23T08:07:46;27.00;;;18.80;;
19341;SDS011;9807;48.258;12.690;2023-05-23T08:10:12;23.90;;;18.33;;
19341;SDS011;9807;48.258;12.690;2023-05-23T08:12:38;26.03;;;18.83;;
19341;SDS011;9807;48.258;12.690;2023-05-23T08:15:04;25.53;;;19.70;;
19341;SDS011;9807;48.258;12.690;2023-05-23T08:17:30;25.57;;;19.60;;
19341;SDS011;9807;48.258;12.690;2023-05-23T08:19:55;27.03;;;19.50;;
19341;SDS011;9807;48.258;12.690;2023-05-23T08:22:21;28.27;;;20.53;;
19341;SDS011;9807;48.258;12.690;2023-05-23T08:24:47;26.83;;;18.60;;
19341;SDS011;9807;48.258;12.690;2023-05-23T08:27:12;26.90;;;19.00;;
19341;SDS011;9807;48.258;12.690;2023-05-23T08:29:38;27.53;;;20.10;;
19341;SDS011;9807;48.258;12.690;2023-05-23T08:32:05;25.00;;;18.57;;
19341;SDS011;9807;48.258;12.690;2023-05-23T08:34:30;24.93;;;19.63;;
19341;SDS011;9807;48.258;12.690;2023-05-23T08:37:02;28.40;;;19.20;;
19341;SDS011;9807;48.258;12.690;2023-05-23T08:39:28;29.20;;;19.20;;
19341;SDS011;9807;48.258;12.690;2023-05-23T08:41:54;22.53;;;17.33;;
19341;SDS011;9807;48.258;12.690;2023-05-23T08:44:19;25.53;;;19.07;;
19341;SDS011;9807;48.258;12.690;2023-05-23T08:46:45;24.87;;;18.87;;
19341;SDS011;9807;48.258;12.690;2023-05-23T08:49:13;29.20;;;18.83;;
19341;SDS011;9807;48.258;12.690;2023-05-23T08:51:44;26.70;;;18.80;;
19341;SDS011;9807;48.258;12.690;2023-05-23T08:54:11;25.33;;;18.67;;
19341;SDS011;9807;48.258;12.690;2023-05-23T08:56:37;25.97;;;20.07;;
19341;SDS011;9807;48.258;12.690;2023-05-23T08:59:04;23.90;;;19.40;;
19341;SDS011;9807;48.258;12.690;2023-05-23T09:01:32;28.70;;;20.23;;
19341;SDS011;9807;48.258;12.690;2023-05-23T09:03:59;27.43;;;19.87;;
19341;SDS011;9807;48.258;12.690;2023-05-23T09:06:32;26.87;;;20.40;;
19341;SDS011;9807;48.258;12.690;2023-05-23T09:08:59;29.03;;;20.57;;
19341;SDS011;9807;48.258;12.690;2023-05-23T09:11:25;31.17;;;20.17;;
19341;SDS011;9807;48.258;12.690;2023-05-23T09:13:51;27.40;;;19.80;;
19341;SDS011;9807;48.258;12.690;2023-05-23T09:16:16;24.67;;;18.70;;
19341;SDS011;9807;48.258;12.690;2023-05-23T09:18:43;28.27;;;19.93;;
19341;SDS011;9807;48.258;12.690;2023-05-23T09:21:09;28.67;;;19.63;;
19341;SDS011;9807;48.258;12.690;2023-05-23T09:23:37;24.50;;;19.17;;
19341;SDS011;9807;48.258;12.690;2023-05-23T09:26:04;25.13;;;18.43;;
19341;SDS011;9807;48.258;12.690;2023-05-23T09:28:35;26.53;;;18.90;;
19341;SDS011;9807;48.258;12.690;2023-05-23T09:31:04;27.87;;;20.00;;
19341;SDS011;9807;48.258;12.690;2023-05-23T09:33:38;28.63;;;20.33;;
19341;SDS011;9807;48.258;12.690;2023-05-23T09:36:11;25.07;;;19.77;;
19341;SDS011;9807;48.258;12.690;2023-05-23T09:38:40;30.53;;;20.03;;
19341;SDS011;9807;48.258;12.690;2023-05-23T09:41:07;24.90;;;19.73;;
19341;SDS011;9807;48.258;12.690;2023-05-23T09:43:36;25.97;;;18.97;;
19341;SDS011;9807;48.258;12.690;2023-05-23T09:46:26;28.17;;;20.20;;
19341;SDS011;9807;48.258;12.690;2023-05-23T09:48:53;26.07;;;19.40;;
19341;SDS011;9807;48.258;12.690;2023-05-23T09:51:20;26.53;;;18.43;;
19341;SDS011;9807;48.258;12.690;2023-05-23T09:53:47;19.30;;;14.67;;
19341;SDS011;9807;48.258;12.690;2023-05-23T09:56:14;18.47;;;14.87;;
19341;SDS011;9807;48.258;12.690;2023-05-23T09:58:47;15.87;;;13.37;;
19341;SDS011;9807;48.258;12.690;2023-05-23T10:01:14;20.23;;;13.67;;
19341;SDS011;9807;48.258;12.690;2023-05-23T10:06:46;21.50;;;15.90;;
19341;SDS011;9807;48.258;12.690;2023-05-23T10:09:08;23.30;;;16.23;;
19341;SDS011;9807;48.258;12.690;2023-05-23T10:14:44;22.23;;;16.70;;
19341;SDS011;9807;48.258;12.690;2023-05-23T10:17:17;20.17;;;16.87;;
19341;SDS011;9807;48.258;12.690;2023-05-23T10:22:11;25.90;;;16.13;;
19341;SDS011;9807;48.258;12.690;2023-05-23T10:24:38;24.00;;;17.07;;
19341;SDS011;9807;48.258;12.690;2023-05-23T10:27:04;23.87;;;17.53;;
19341;SDS011;9807;48.258;12.690;2023-05-23T10:29:31;25.60;;;17.20;;
19341;SDS011;9807;48.258;12.690;2023-05-23T10:31:57;20.60;;;17.23;;
19341;SDS011;9807;48.258;12.690;2023-05-23T10:36:54;22.47;;;17.07;;
19341;SDS011;9807;48.258;12.690;2023-05-23T10:42:55;23.50;;;16.17;;
19341;SDS011;9807;48.258;12.690;2023-05-23T10:45:19;24.00;;;15.93;;
19341;SDS011;9807;48.258;12.690;2023-05-23T10:47:46;25.43;;;19.33;;
19341;SDS011;9807;48.258;12.690;2023-05-23T10:50:13;27.67;;;18.83;;
19341;SDS011;9807;48.258;12.690;2023-05-23T10:52:44;24.13;;;18.47;;
19341;SDS011;9807;48.258;12.690;2023-05-23T10:55:13;24.37;;;18.07;;
19341;SDS011;9807;48.258;12.690;2023-05-23T10:57:44;22.27;;;15.53;;
19341;SDS011;9807;48.258;12.690;2023-05-23T11:00:14;21.63;;;16.57;;
19341;SDS011;9807;48.258;12.690;2023-05-23T11:02:58;25.00;;;18.30;;
19341;SDS011;9807;48.258;12.690;2023-05-23T11:05:26;25.63;;;19.30;;
19341;SDS011;9807;48.258;12.690;2023-05-23T11:08:05;22.03;;;17.27;;
19341;SDS011;9807;48.258;12.690;2023-05-23T11:10:53;20.77;;;15.80;;
19341;SDS011;9807;48.258;12.690;2023-05-23T11:16:24;26.07;;;15.53;;
19341;SDS011;9807;48.258;12.690;2023-05-23T11:18:50;23.10;;;15.80;;
19341;SDS011;9807;48.258;12.690;2023-05-23T11:21:16;20.17;;;14.57;;
19341;SDS011;9807;48.258;12.690;2023-05-23T11:23:43;16.57;;;13.40;;
19341;SDS011;9807;48.258;12.690;2023-05-23T11:26:28;17.83;;;14.27;;
19341;SDS011;9807;48.258;12.690;2023-05-23T11:28:55;20.27;;;15.57;;
19341;SDS011;9807;48.258;12.690;2023-05-23T11:31:22;22.13;;;15.57;;
19341;SDS011;9807;48.258;12.690;2023-05-23T11:33:51;22.57;;;15.27;;
19341;SDS011;9807;48.258;12.690;2023-05-23T11:36:17;25.73;;;16.63;;
19341;SDS011;9807;48.258;12.690;2023-05-23T11:38:48;22.20;;;14.40;;
19341;SDS011;9807;48.258;12.690;2023-05-23T11:41:16;20.97;;;16.20;;
19341;SDS011;9807;48.258;12.690;2023-05-23T11:43:52;19.33;;;15.47;;
19341;SDS011;9807;48.258;12.690;2023-05-23T11:46:17;21.67;;;14.67;;
19341;SDS011;9807;48.258;12.690;2023-05-23T11:48:44;20.87;;;14.27;;
19341;SDS011;9807;48.258;12.690;2023-05-23T11:51:13;16.67;;;13.97;;
19341;SDS011;9807;48.258;12.690;2023-05-23T11:53:39;20.97;;;13.03;;
19341;SDS011;9807;48.258;12.690;2023-05-23T11:56:05;16.13;;;13.80;;
19341;SDS011;9807;48.258;12.690;2023-05-23T11:58:35;24.80;;;14.27;;
19341;SDS011;9807;48.258;12.690;2023-05-23T12:01:02;18.70;;;13.50;;
19341;SDS011;9807;48.258;12.690;2023-05-23T12:03:30;19.23;;;13.83;;
19341;SDS011;9807;48.258;12.690;2023-05-23T12:05:57;17.43;;;13.87;;
19341;SDS011;9807;48.258;12.690;2023-05-23T12:08:22;21.93;;;13.43;;
19341;SDS011;9807;48.258;12.690;2023-05-23T12:10:52;19.03;;;12.53;;
19341;SDS011;9807;48.258;12.690;2023-05-23T12:13:26;16.97;;;13.07;;
19341;SDS011;9807;48.258;12.690;2023-05-23T12:15:56;18.77;;;14.13;;
19341;SDS011;9807;48.258;12.690;2023-05-23T12:18:26;18.57;;;14.40;;
19341;SDS011;9807;48.258;12.690;2023-05-23T12:20:53;22.73;;;14.57;;
19341;SDS011;9807;48.258;12.690;2023-05-23T12:23:27;17.70;;;13.67;;
19341;SDS011;9807;48.258;12.690;2023-05-23T12:25:54;16.53;;;13.67;;
19341;SDS011;9807;48.258;12.690;2023-05-23T12:28:21;17.23;;;14.50;;
19341;SDS011;9807;48.258;12.690;2023-05-23T12:31:19;16.67;;;12.53;;
19341;SDS011;9807;48.258;12.690;2023-05-23T12:33:46;16.50;;;11.70;;
19341;SDS011;9807;48.258;12.690;2023-05-23T12:36:31;13.53;;;11.47;;
19341;SDS011;9807;48.258;12.690;2023-05-23T12:39:01;18.03;;;10.87;;
19341;SDS011;9807;48.258;12.690;2023-05-23T12:41:28;18.23;;;11.90;;
19341;SDS011;9807;48.258;12.690;2023-05-23T12:43:54;16.27;;;11.67;;
19341;SDS011;9807;48.258;12.690;2023-05-23T12:46:24;14.57;;;11.60;;
19341;SDS011;9807;48.258;12.690;2023-05-23T12:48:51;15.07;;;12.30;;
19341;SDS011;9807;48.258;12.690;2023-05-23T12:51:18;15.63;;;11.17;;
19341;SDS011;9807;48.258;12.690;2023-05-23T12:53:44;13.10;;;11.33;;
19341;SDS011;9807;48.258;12.690;2023-05-23T12:56:11;16.07;;;11.00;;
19341;SDS011;9807;48.258;12.690;2023-05-23T12:58:38;15.73;;;12.10;;
19341;SDS011;9807;48.258;12.690;2023-05-23T13:01:03;15.63;;;11.97;;
19341;SDS011;9807;48.258;12.690;2023-05-23T13:03:29;14.23;;;12.23;;
19341;SDS011;9807;48.258;12.690;2023-05-23T13:05:56;15.60;;;12.23;;
19341;SDS011;9807;48.258;12.690;2023-05-23T13:08:22;16.10;;;12.03;;
19341;SDS011;9807;48.258;12.690;2023-05-23T13:10:49;13.93;;;11.07;;
19341;SDS011;9807;48.258;12.690;2023-05-23T13:13:15;16.57;;;11.93;;
19341;SDS011;9807;48.258;12.690;2023-05-23T13:15:40;14.03;;;10.63;;
19341;SDS011;9807;48.258;12.690;2023-05-23T13:18:09;16.57;;;11.87;;
19341;SDS011;9807;48.258;12.690;2023-05-23T13:20:35;18.70;;;11.33;;
19341;SDS011;9807;48.258;12.690;2023-05-23T13:23:01;17.93;;;11.13;;
19341;SDS011;9807;48.258;12.690;2023-05-23T13:25:28;17.60;;;9.93;;
19341;SDS011;9807;48.258;12.690;2023-05-23T13:27:54;14.40;;;9.67;;
19341;SDS011;9807;48.258;12.690;2023-05-23T13:30:21;11.47;;;9.53;;
19341;SDS011;9807;48.258;12.690;2023-05-23T13:32:48;13.00;;;9.43;;
19341;SDS011;9807;48.258;12.690;2023-05-23T13:35:14;16.10;;;9.67;;
19341;SDS011;9807;48.258;12.690;2023-05-23T13:37:40;13.47;;;10.70;;
19341;SDS011;9807;48.258;12.690;2023-05-23T13:40:11;15.70;;;10.37;;
19341;SDS011;9807;48.258;12.690;2023-05-23T13:42:44;15.33;;;10.10;;
19341;SDS011;9807;48.258;12.690;2023-05-23T13:45:11;16.87;;;10.47;;
19341;SDS011;9807;48.258;12.690;2023-05-23T13:47:38;13.23;;;10.00;;
19341;SDS011;9807;48.258;12.690;2023-05-23T13:50:04;12.83;;;10.47;;
19341;SDS011;9807;48.258;12.690;2023-05-23T13:52:31;14.30;;;11.17;;
19341;SDS011;9807;48.258;12.690;2023-05-23T13:54:56;18.10;;;11.33;;
19341;SDS011;9807;48.258;12.690;2023-05-23T13:57:23;14.23;;;11.10;;
19341;SDS011;9807;48.258;12.690;2023-05-23T13:59:49;16.70;;;10.87;;
19341;SDS011;9807;48.258;12.690;2023-05-23T14:02:15;15.53;;;10.87;;
19341;SDS011;9807;48.258;12.690;2023-05-23T14:04:40;14.83;;;11.13;;
19341;SDS011;9807;48.258;12.690;2023-05-23T14:07:07;14.13;;;11.77;;
19341;SDS011;9807;48.258;12.690;2023-05-23T14:09:33;15.90;;;11.23;;
19341;SDS011;9807;48.258;12.690;2023-05-23T14:11:59;11.33;;;10.10;;
19341;SDS011;9807;48.258;12.690;2023-05-23T14:14:25;15.17;;;11.17;;
19341;SDS011;9807;48.258;12.690;2023-05-23T14:16:51;11.43;;;10.23;;
19341;SDS011;9807;48.258;12.690;2023-05-23T14:19:17;13.13;;;10.33;;
19341;SDS011;9807;48.258;12.690;2023-05-23T14:21:43;14.00;;;9.90;;
19341;SDS011;9807;48.258;12.690;2023-05-23T14:24:09;16.83;;;10.40;;
19341;SDS011;9807;48.258;12.690;2023-05-23T14:26:35;16.03;;;10.23;;
19341;SDS011;9807;48.258;12.690;2023-05-23T14:29:01;13.67;;;10.80;;
19341;SDS011;9807;48.258;12.690;2023-05-23T14:31:26;13.40;;;10.30;;
19341;SDS011;9807;48.258;12.690;2023-05-23T14:33:52;12.57;;;9.90;;
19341;SDS011;9807;48.258;12.690;2023-05-23T14:36:18;15.73;;;10.37;;
19341;SDS011;9807;48.258;12.690;2023-05-23T14:38:43;11.53;;;10.00;;
19341;SDS011;9807;48.258;12.690;2023-05-23T14:41:10;18.03;;;10.53;;
19341;SDS011;9807;48.258;12.690;2023-05-23T14:43:40;18.43;;;11.13;;